sensor_id;sensor_type;location;lat;lon;timestamp;P1;durP1;ratioP1;P2;durP2;ratioP2
44850;SDS011;30583;48.714;9.386;2023-12-20T00:00:19;6.43;;;3.80;;
44850;SDS011;30583;48.714;9.386;2023-12-20T00:02:45;4.22;;;3.08;;
44850;SDS011;30583;48.714;9.386;2023-12-20T00:05:12;6.00;;;3.67;;
44850;SDS011;30583;48.714;9.386;2023-12-20T00:07:39;6.10;;;3.45;;
44850;SDS011;30583;48.714;9.386;2023-12-20T00:10:04;6.13;;;3.42;;
44850;SDS011;30583;48.714;9.386;2023-12-20T00:12:30;5.82;;;3.78;;
44850;SDS011;30583;48.714;9.386;2023-12-20T00:14:56;5.90;;;4.05;;
44850;SDS011;30583;48.714;9.386;2023-12-20T00:17:21;5.68;;;3.38;;
44850;SDS011;30583;48.714;9.386;2023-12-20T00:19:47;5.88;;;3.38;;
44850;SDS011;30583;48.714;9.386;2023-12-20T00:22:12;6.32;;;3.30;;
44850;SDS011;30583;48.714;9.386;2023-12-20T00:24:38;6.63;;;3.60;;
44850;SDS011;30583;48.714;9.386;2023-12-20T00:27:03;5.60;;;3.10;;
44850;SDS011;30583;48.714;9.386;2023-12-20T00:29:29;5.68;;;3.60;;
44850;SDS011;30583;48.714;9.386;2023-12-20T00:31:55;3.58;;;2.40;;
44850;SDS011;30583;48.714;9.386;2023-12-20T00:34:20;6.85;;;2.80;;
44850;SDS011;30583;48.714;9.386;2023-12-20T00:36:46;4.45;;;2.58;;
44850;SDS011;30583;48.714;9.386;2023-12-20T00:39:12;4.80;;;3.00;;
44850;SDS011;30583;48.714;9.386;2023-12-20T00:41:38;4.60;;;2.95;;
44850;SDS011;30583;48.714;9.386;2023-12-20T00:44:03;3.60;;;2.25;;
44850;SDS011;30583;48.714;9.386;2023-12-20T00:46:29;3.03;;;1.80;;
44850;SDS011;30583;48.714;9.386;2023-12-20T00:48:54;2.83;;;1.75;;
44850;SDS011;30583;48.714;9.386;2023-12-20T00:51:20;2.15;;;1.40;;
44850;SDS011;30583;48.714;9.386;2023-12-20T00:53:47;3.08;;;1.60;;
44850;SDS011;30583;48.714;9.386;2023-12-20T00:56:14;2.97;;;1.30;;
44850;SDS011;30583;48.714;9.386;2023-12-20T00:58:39;2.38;;;1.23;;
44850;SDS011;30583;48.714;9.386;2023-12-20T01:01:05;3.42;;;1.20;;
44850;SDS011;30583;48.714;9.386;2023-12-20T01:03:31;3.38;;;1.20;;
44850;SDS011;30583;48.714;9.386;2023-12-20T01:05:56;2.25;;;1.02;;
44850;SDS011;30583;48.714;9.386;2023-12-20T01:08:22;2.22;;;1.20;;
44850;SDS011;30583;48.714;9.386;2023-12-20T01:10:47;1.88;;;1.10;;
44850;SDS011;30583;48.714;9.386;2023-12-20T01:13:13;2.15;;;1.20;;
44850;SDS011;30583;48.714;9.386;2023-12-20T01:15:39;1.45;;;1.10;;
44850;SDS011;30583;48.714;9.386;2023-12-20T01:18:04;2.45;;;1.00;;
44850;SDS011;30583;48.714;9.386;2023-12-20T01:20:30;2.25;;;1.13;;
44850;SDS011;30583;48.714;9.386;2023-12-20T01:22:56;1.85;;;1.23;;
44850;SDS011;30583;48.714;9.386;2023-12-20T01:25:21;2.33;;;1.10;;
44850;SDS011;30583;48.714;9.386;2023-12-20T01:27:47;3.33;;;1.20;;
44850;SDS011;30583;48.714;9.386;2023-12-20T01:30:13;2.65;;;1.30;;
44850;SDS011;30583;48.714;9.386;2023-12-20T01:32:40;1.65;;;1.17;;
44850;SDS011;30583;48.714;9.386;2023-12-20T01:35:05;1.55;;;1.15;;
44850;SDS011;30583;48.714;9.386;2023-12-20T01:37:31;2.92;;;1.48;;
44850;SDS011;30583;48.714;9.386;2023-12-20T01:39:57;2.13;;;1.20;;
44850;SDS011;30583;48.714;9.386;2023-12-20T01:42:23;4.90;;;1.50;;
44850;SDS011;30583;48.714;9.386;2023-12-20T01:44:49;1.98;;;1.38;;
44850;SDS011;30583;48.714;9.386;2023-12-20T01:47:14;3.03;;;1.55;;
44850;SDS011;30583;48.714;9.386;2023-12-20T01:49:40;3.83;;;1.30;;
44850;SDS011;30583;48.714;9.386;2023-12-20T01:52:06;2.47;;;1.02;;
44850;SDS011;30583;48.714;9.386;2023-12-20T01:54:33;2.17;;;1.35;;
44850;SDS011;30583;48.714;9.386;2023-12-20T01:57:00;3.03;;;1.13;;
44850;SDS011;30583;48.714;9.386;2023-12-20T01:59:26;2.78;;;1.40;;
44850;SDS011;30583;48.714;9.386;2023-12-20T02:01:53;2.65;;;1.50;;
44850;SDS011;30583;48.714;9.386;2023-12-20T02:04:18;4.05;;;1.35;;
44850;SDS011;30583;48.714;9.386;2023-12-20T02:06:44;2.25;;;1.27;;
44850;SDS011;30583;48.714;9.386;2023-12-20T02:09:11;2.30;;;1.40;;
44850;SDS011;30583;48.714;9.386;2023-12-20T02:11:37;3.60;;;1.30;;
44850;SDS011;30583;48.714;9.386;2023-12-20T02:14:03;2.78;;;1.08;;
44850;SDS011;30583;48.714;9.386;2023-12-20T02:16:28;1.70;;;0.98;;
44850;SDS011;30583;48.714;9.386;2023-12-20T02:18:54;2.63;;;1.60;;
44850;SDS011;30583;48.714;9.386;2023-12-20T02:21:24;1.65;;;0.90;;
44850;SDS011;30583;48.714;9.386;2023-12-20T02:23:50;2.97;;;1.38;;
44850;SDS011;30583;48.714;9.386;2023-12-20T02:26:16;4.22;;;1.35;;
44850;SDS011;30583;48.714;9.386;2023-12-20T02:28:43;2.75;;;1.40;;
44850;SDS011;30583;48.714;9.386;2023-12-20T02:31:09;2.95;;;1.42;;
44850;SDS011;30583;48.714;9.386;2023-12-20T02:33:34;2.97;;;1.30;;
44850;SDS011;30583;48.714;9.386;2023-12-20T02:36:00;1.88;;;1.02;;
44850;SDS011;30583;48.714;9.386;2023-12-20T02:38:25;1.95;;;1.20;;
44850;SDS011;30583;48.714;9.386;2023-12-20T02:40:51;3.38;;;1.35;;
44850;SDS011;30583;48.714;9.386;2023-12-20T02:43:16;1.63;;;1.20;;
44850;SDS011;30583;48.714;9.386;2023-12-20T02:45:42;2.83;;;1.10;;
44850;SDS011;30583;48.714;9.386;2023-12-20T02:48:08;3.88;;;1.40;;
44850;SDS011;30583;48.714;9.386;2023-12-20T02:50:33;1.58;;;1.05;;
44850;SDS011;30583;48.714;9.386;2023-12-20T02:52:59;2.35;;;1.40;;
44850;SDS011;30583;48.714;9.386;2023-12-20T02:55:24;1.92;;;1.15;;
44850;SDS011;30583;48.714;9.386;2023-12-20T02:57:50;3.60;;;1.30;;
44850;SDS011;30583;48.714;9.386;2023-12-20T03:00:15;2.08;;;1.10;;
44850;SDS011;30583;48.714;9.386;2023-12-20T03:02:41;3.13;;;1.10;;
44850;SDS011;30583;48.714;9.386;2023-12-20T03:05:07;2.22;;;1.25;;
44850;SDS011;30583;48.714;9.386;2023-12-20T03:07:32;2.28;;;1.13;;
44850;SDS011;30583;48.714;9.386;2023-12-20T03:09:58;1.63;;;1.02;;
44850;SDS011;30583;48.714;9.386;2023-12-20T03:12:24;1.88;;;1.10;;
44850;SDS011;30583;48.714;9.386;2023-12-20T03:14:49;3.88;;;1.20;;
44850;SDS011;30583;48.714;9.386;2023-12-20T03:17:15;1.90;;;1.00;;
44850;SDS011;30583;48.714;9.386;2023-12-20T03:19:40;1.85;;;1.40;;
44850;SDS011;30583;48.714;9.386;2023-12-20T03:22:06;2.28;;;1.30;;
44850;SDS011;30583;48.714;9.386;2023-12-20T03:24:31;3.33;;;1.20;;
44850;SDS011;30583;48.714;9.386;2023-12-20T03:26:57;1.75;;;1.10;;
44850;SDS011;30583;48.714;9.386;2023-12-20T03:29:22;2.78;;;0.90;;
44850;SDS011;30583;48.714;9.386;2023-12-20T03:31:48;2.67;;;1.20;;
44850;SDS011;30583;48.714;9.386;2023-12-20T03:34:13;1.92;;;1.00;;
44850;SDS011;30583;48.714;9.386;2023-12-20T03:36:39;1.83;;;1.20;;
44850;SDS011;30583;48.714;9.386;2023-12-20T03:39:05;2.35;;;1.25;;
44850;SDS011;30583;48.714;9.386;2023-12-20T03:41:30;97.28;;;59.08;;
44850;SDS011;30583;48.714;9.386;2023-12-20T03:43:56;19.45;;;12.13;;
44850;SDS011;30583;48.714;9.386;2023-12-20T03:46:22;9.73;;;5.55;;
44850;SDS011;30583;48.714;9.386;2023-12-20T03:48:47;3.95;;;2.13;;
44850;SDS011;30583;48.714;9.386;2023-12-20T03:51:13;3.03;;;1.33;;
44850;SDS011;30583;48.714;9.386;2023-12-20T03:53:38;3.05;;;1.58;;
44850;SDS011;30583;48.714;9.386;2023-12-20T03:56:05;2.97;;;1.60;;
44850;SDS011;30583;48.714;9.386;2023-12-20T03:58:31;2.33;;;1.27;;
44850;SDS011;30583;48.714;9.386;2023-12-20T04:00:56;3.15;;;1.38;;
44850;SDS011;30583;48.714;9.386;2023-12-20T04:03:22;2.15;;;1.38;;
44850;SDS011;30583;48.714;9.386;2023-12-20T04:05:47;2.63;;;1.42;;
44850;SDS011;30583;48.714;9.386;2023-12-20T04:08:13;2.85;;;1.05;;
44850;SDS011;30583;48.714;9.386;2023-12-20T04:10:39;1.85;;;1.10;;
44850;SDS011;30583;48.714;9.386;2023-12-20T04:13:04;2.30;;;1.10;;
44850;SDS011;30583;48.714;9.386;2023-12-20T04:15:30;2.03;;;0.90;;
44850;SDS011;30583;48.714;9.386;2023-12-20T04:17:55;1.58;;;0.85;;
44850;SDS011;30583;48.714;9.386;2023-12-20T04:20:21;1.83;;;0.90;;
44850;SDS011;30583;48.714;9.386;2023-12-20T04:22:46;1.00;;;0.75;;
44850;SDS011;30583;48.714;9.386;2023-12-20T04:25:12;1.45;;;0.70;;
44850;SDS011;30583;48.714;9.386;2023-12-20T04:27:38;2.33;;;0.90;;
44850;SDS011;30583;48.714;9.386;2023-12-20T04:30:03;1.48;;;0.80;;
44850;SDS011;30583;48.714;9.386;2023-12-20T04:32:29;1.15;;;0.80;;
44850;SDS011;30583;48.714;9.386;2023-12-20T04:34:56;0.70;;;0.60;;
44850;SDS011;30583;48.714;9.386;2023-12-20T04:37:22;1.25;;;0.80;;
44850;SDS011;30583;48.714;9.386;2023-12-20T04:39:47;0.95;;;0.60;;
44850;SDS011;30583;48.714;9.386;2023-12-20T04:42:13;1.17;;;0.80;;
44850;SDS011;30583;48.714;9.386;2023-12-20T04:44:38;2.63;;;0.68;;
44850;SDS011;30583;48.714;9.386;2023-12-20T04:47:04;2.05;;;0.68;;
44850;SDS011;30583;48.714;9.386;2023-12-20T04:49:29;8.50;;;1.77;;
44850;SDS011;30583;48.714;9.386;2023-12-20T04:51:55;1.23;;;0.52;;
44850;SDS011;30583;48.714;9.386;2023-12-20T04:54:21;1.25;;;0.60;;
44850;SDS011;30583;48.714;9.386;2023-12-20T04:56:47;1.27;;;0.60;;
44850;SDS011;30583;48.714;9.386;2023-12-20T04:59:12;1.88;;;1.30;;
44850;SDS011;30583;48.714;9.386;2023-12-20T05:01:38;1.08;;;0.80;;
44850;SDS011;30583;48.714;9.386;2023-12-20T05:04:04;1.10;;;0.75;;
44850;SDS011;30583;48.714;9.386;2023-12-20T05:06:29;1.17;;;0.68;;
44850;SDS011;30583;48.714;9.386;2023-12-20T05:08:55;1.08;;;0.90;;
44850;SDS011;30583;48.714;9.386;2023-12-20T05:11:20;1.20;;;0.90;;
44850;SDS011;30583;48.714;9.386;2023-12-20T05:13:46;2.60;;;1.17;;
44850;SDS011;30583;48.714;9.386;2023-12-20T05:16:12;2.45;;;1.70;;
44850;SDS011;30583;48.714;9.386;2023-12-20T05:18:39;3.20;;;1.60;;
44850;SDS011;30583;48.714;9.386;2023-12-20T05:21:05;5.50;;;1.92;;
44850;SDS011;30583;48.714;9.386;2023-12-20T05:23:30;23.90;;;6.70;;
44850;SDS011;30583;48.714;9.386;2023-12-20T05:25:56;19.50;;;6.90;;
44850;SDS011;30583;48.714;9.386;2023-12-20T05:28:21;28.98;;;12.57;;
44850;SDS011;30583;48.714;9.386;2023-12-20T05:30:47;80.43;;;39.47;;
44850;SDS011;30583;48.714;9.386;2023-12-20T05:33:12;46.15;;;21.42;;
44850;SDS011;30583;48.714;9.386;2023-12-20T05:35:38;25.95;;;11.15;;
44850;SDS011;30583;48.714;9.386;2023-12-20T05:38:03;8.85;;;3.45;;
44850;SDS011;30583;48.714;9.386;2023-12-20T05:40:29;5.60;;;2.90;;
44850;SDS011;30583;48.714;9.386;2023-12-20T05:42:55;189.68;;;117.90;;
44850;SDS011;30583;48.714;9.386;2023-12-20T05:45:20;355.58;;;158.23;;
44850;SDS011;30583;48.714;9.386;2023-12-20T05:47:46;30.88;;;13.95;;
44850;SDS011;30583;48.714;9.386;2023-12-20T05:50:11;51.25;;;20.77;;
44850;SDS011;30583;48.714;9.386;2023-12-20T05:52:37;640.33;;;272.23;;
44850;SDS011;30583;48.714;9.386;2023-12-20T05:55:02;435.83;;;166.18;;
44850;SDS011;30583;48.714;9.386;2023-12-20T05:57:28;182.98;;;71.72;;
44850;SDS011;30583;48.714;9.386;2023-12-20T05:59:54;88.57;;;36.75;;
44850;SDS011;30583;48.714;9.386;2023-12-20T06:02:19;43.55;;;19.63;;
44850;SDS011;30583;48.714;9.386;2023-12-20T06:04:45;50.53;;;21.65;;
44850;SDS011;30583;48.714;9.386;2023-12-20T06:07:11;101.88;;;44.28;;
44850;SDS011;30583;48.714;9.386;2023-12-20T06:09:37;108.40;;;46.05;;
44850;SDS011;30583;48.714;9.386;2023-12-20T06:12:03;99.10;;;40.70;;
44850;SDS011;30583;48.714;9.386;2023-12-20T06:14:29;48.97;;;22.48;;
44850;SDS011;30583;48.714;9.386;2023-12-20T06:16:55;25.05;;;11.77;;
44850;SDS011;30583;48.714;9.386;2023-12-20T06:19:21;9.68;;;5.10;;
44850;SDS011;30583;48.714;9.386;2023-12-20T06:21:47;7.00;;;3.67;;
44850;SDS011;30583;48.714;9.386;2023-12-20T06:24:12;3.35;;;2.47;;
44850;SDS011;30583;48.714;9.386;2023-12-20T06:26:38;3.05;;;2.20;;
44850;SDS011;30583;48.714;9.386;2023-12-20T06:29:04;5.07;;;2.38;;
44850;SDS011;30583;48.714;9.386;2023-12-20T06:31:29;3.92;;;1.50;;
44850;SDS011;30583;48.714;9.386;2023-12-20T06:33:55;4.13;;;1.88;;
44850;SDS011;30583;48.714;9.386;2023-12-20T06:36:22;3.75;;;1.40;;
44850;SDS011;30583;48.714;9.386;2023-12-20T06:38:51;3.47;;;1.13;;
44850;SDS011;30583;48.714;9.386;2023-12-20T06:41:16;3.50;;;1.20;;
44850;SDS011;30583;48.714;9.386;2023-12-20T06:43:42;3.83;;;1.30;;
44850;SDS011;30583;48.714;9.386;2023-12-20T06:46:08;2.70;;;1.40;;
44850;SDS011;30583;48.714;9.386;2023-12-20T06:48:34;2.63;;;1.30;;
44850;SDS011;30583;48.714;9.386;2023-12-20T06:51:00;4.13;;;1.80;;
44850;SDS011;30583;48.714;9.386;2023-12-20T06:53:29;2.47;;;1.35;;
44850;SDS011;30583;48.714;9.386;2023-12-20T06:55:55;3.47;;;2.05;;
44850;SDS011;30583;48.714;9.386;2023-12-20T06:58:24;8.65;;;4.78;;
44850;SDS011;30583;48.714;9.386;2023-12-20T07:00:50;8.77;;;4.60;;
44850;SDS011;30583;48.714;9.386;2023-12-20T07:03:16;6.20;;;3.47;;
44850;SDS011;30583;48.714;9.386;2023-12-20T07:05:42;6.57;;;3.55;;
44850;SDS011;30583;48.714;9.386;2023-12-20T07:08:07;3.28;;;2.20;;
44850;SDS011;30583;48.714;9.386;2023-12-20T07:10:33;12.23;;;8.68;;
44850;SDS011;30583;48.714;9.386;2023-12-20T07:12:58;6.88;;;4.25;;
44850;SDS011;30583;48.714;9.386;2023-12-20T07:15:24;12.48;;;5.75;;
44850;SDS011;30583;48.714;9.386;2023-12-20T07:17:50;14.48;;;9.35;;
44850;SDS011;30583;48.714;9.386;2023-12-20T07:20:15;8.90;;;3.50;;
44850;SDS011;30583;48.714;9.386;2023-12-20T07:22:41;5.05;;;2.55;;
44850;SDS011;30583;48.714;9.386;2023-12-20T07:25:07;710.70;;;275.15;;
44850;SDS011;30583;48.714;9.386;2023-12-20T07:27:33;963.60;;;399.25;;
44850;SDS011;30583;48.714;9.386;2023-12-20T07:29:58;602.90;;;254.52;;
44850;SDS011;30583;48.714;9.386;2023-12-20T07:32:24;601.28;;;267.20;;
44850;SDS011;30583;48.714;9.386;2023-12-20T07:34:49;662.03;;;315.52;;
44850;SDS011;30583;48.714;9.386;2023-12-20T07:37:15;262.25;;;112.57;;
44850;SDS011;30583;48.714;9.386;2023-12-20T07:39:41;282.40;;;128.02;;
44850;SDS011;30583;48.714;9.386;2023-12-20T07:42:07;130.48;;;64.60;;
44850;SDS011;30583;48.714;9.386;2023-12-20T07:44:33;73.70;;;39.00;;
44850;SDS011;30583;48.714;9.386;2023-12-20T07:46:59;17.17;;;9.50;;
44850;SDS011;30583;48.714;9.386;2023-12-20T07:49:26;5.15;;;2.60;;
44850;SDS011;30583;48.714;9.386;2023-12-20T07:51:51;5.55;;;3.00;;
44850;SDS011;30583;48.714;9.386;2023-12-20T07:54:17;5.00;;;3.13;;
44850;SDS011;30583;48.714;9.386;2023-12-20T07:56:42;7.55;;;4.18;;
44850;SDS011;30583;48.714;9.386;2023-12-20T07:59:08;4.47;;;2.15;;
44850;SDS011;30583;48.714;9.386;2023-12-20T08:01:34;3.78;;;1.65;;
44850;SDS011;30583;48.714;9.386;2023-12-20T08:03:59;1.80;;;0.88;;
44850;SDS011;30583;48.714;9.386;2023-12-20T08:06:25;1.83;;;1.20;;
44850;SDS011;30583;48.714;9.386;2023-12-20T08:08:50;2.97;;;1.40;;
44850;SDS011;30583;48.714;9.386;2023-12-20T08:11:16;3.15;;;1.60;;
44850;SDS011;30583;48.714;9.386;2023-12-20T08:13:42;5.00;;;1.75;;
44850;SDS011;30583;48.714;9.386;2023-12-20T08:16:08;3.10;;;1.42;;
44850;SDS011;30583;48.714;9.386;2023-12-20T08:18:34;3.20;;;1.67;;
44850;SDS011;30583;48.714;9.386;2023-12-20T08:20:59;3.45;;;1.70;;
44850;SDS011;30583;48.714;9.386;2023-12-20T08:23:26;2.97;;;1.70;;
44850;SDS011;30583;48.714;9.386;2023-12-20T08:25:51;2.45;;;1.70;;
44850;SDS011;30583;48.714;9.386;2023-12-20T08:28:17;5.22;;;2.20;;
44850;SDS011;30583;48.714;9.386;2023-12-20T08:30:43;4.20;;;2.15;;
44850;SDS011;30583;48.714;9.386;2023-12-20T08:33:08;7.40;;;4.28;;
44850;SDS011;30583;48.714;9.386;2023-12-20T08:35:37;20.63;;;13.13;;
44850;SDS011;30583;48.714;9.386;2023-12-20T08:38:06;7.28;;;3.33;;
44850;SDS011;30583;48.714;9.386;2023-12-20T08:40:32;4.82;;;2.75;;
44850;SDS011;30583;48.714;9.386;2023-12-20T08:42:57;4.97;;;2.78;;
44850;SDS011;30583;48.714;9.386;2023-12-20T08:45:23;4.90;;;2.45;;
44850;SDS011;30583;48.714;9.386;2023-12-20T08:47:49;5.10;;;2.45;;
44850;SDS011;30583;48.714;9.386;2023-12-20T08:50:15;6.28;;;3.72;;
44850;SDS011;30583;48.714;9.386;2023-12-20T08:52:41;6.95;;;4.07;;
44850;SDS011;30583;48.714;9.386;2023-12-20T08:55:07;12.50;;;7.35;;
44850;SDS011;30583;48.714;9.386;2023-12-20T08:57:34;4.55;;;2.72;;
44850;SDS011;30583;48.714;9.386;2023-12-20T09:00:00;3.63;;;2.40;;
44850;SDS011;30583;48.714;9.386;2023-12-20T09:02:26;4.40;;;2.10;;
44850;SDS011;30583;48.714;9.386;2023-12-20T09:04:51;15.02;;;10.35;;
44850;SDS011;30583;48.714;9.386;2023-12-20T09:07:23;7.22;;;4.95;;
44850;SDS011;30583;48.714;9.386;2023-12-20T09:09:49;5.88;;;2.50;;
44850;SDS011;30583;48.714;9.386;2023-12-20T09:12:16;5.20;;;2.28;;
44850;SDS011;30583;48.714;9.386;2023-12-20T09:14:46;9.07;;;5.95;;
44850;SDS011;30583;48.714;9.386;2023-12-20T09:17:12;3.53;;;2.25;;
44850;SDS011;30583;48.714;9.386;2023-12-20T09:19:38;4.90;;;2.20;;
44850;SDS011;30583;48.714;9.386;2023-12-20T09:22:04;3.33;;;1.92;;
44850;SDS011;30583;48.714;9.386;2023-12-20T09:24:30;4.13;;;2.00;;
44850;SDS011;30583;48.714;9.386;2023-12-20T09:26:56;6.03;;;2.00;;
44850;SDS011;30583;48.714;9.386;2023-12-20T09:29:21;4.68;;;2.30;;
44850;SDS011;30583;48.714;9.386;2023-12-20T09:31:47;5.63;;;3.08;;
44850;SDS011;30583;48.714;9.386;2023-12-20T09:34:15;6.10;;;2.67;;
44850;SDS011;30583;48.714;9.386;2023-12-20T09:36:42;4.10;;;2.35;;
44850;SDS011;30583;48.714;9.386;2023-12-20T09:39:12;4.70;;;2.00;;
44850;SDS011;30583;48.714;9.386;2023-12-20T09:41:40;4.90;;;1.85;;
44850;SDS011;30583;48.714;9.386;2023-12-20T09:44:08;3.10;;;1.90;;
44850;SDS011;30583;48.714;9.386;2023-12-20T09:46:37;3.53;;;2.33;;
44850;SDS011;30583;48.714;9.386;2023-12-20T09:49:07;6.53;;;2.50;;
44850;SDS011;30583;48.714;9.386;2023-12-20T09:51:33;4.70;;;1.90;;
44850;SDS011;30583;48.714;9.386;2023-12-20T09:54:01;7.97;;;2.50;;
44850;SDS011;30583;48.714;9.386;2023-12-20T09:56:29;3.60;;;1.65;;
44850;SDS011;30583;48.714;9.386;2023-12-20T09:58:55;4.15;;;1.85;;
44850;SDS011;30583;48.714;9.386;2023-12-20T10:01:21;6.00;;;3.00;;
44850;SDS011;30583;48.714;9.386;2023-12-20T10:03:46;5.65;;;2.83;;
44850;SDS011;30583;48.714;9.386;2023-12-20T10:06:12;11.45;;;5.60;;
44850;SDS011;30583;48.714;9.386;2023-12-20T10:08:38;27.30;;;13.95;;
44850;SDS011;30583;48.714;9.386;2023-12-20T10:11:04;6.70;;;3.17;;
44850;SDS011;30583;48.714;9.386;2023-12-20T10:13:30;5.72;;;1.98;;
44850;SDS011;30583;48.714;9.386;2023-12-20T10:15:56;3.13;;;1.65;;
44850;SDS011;30583;48.714;9.386;2023-12-20T10:18:22;4.57;;;1.67;;
44850;SDS011;30583;48.714;9.386;2023-12-20T10:20:48;5.20;;;1.83;;
44850;SDS011;30583;48.714;9.386;2023-12-20T10:23:15;9.85;;;2.00;;
44850;SDS011;30583;48.714;9.386;2023-12-20T10:25:41;3.83;;;1.90;;
44850;SDS011;30583;48.714;9.386;2023-12-20T10:28:13;7.22;;;1.95;;
44850;SDS011;30583;48.714;9.386;2023-12-20T10:30:43;6.57;;;1.80;;
44850;SDS011;30583;48.714;9.386;2023-12-20T10:33:09;8.90;;;2.10;;
44850;SDS011;30583;48.714;9.386;2023-12-20T10:35:35;4.60;;;1.40;;
44850;SDS011;30583;48.714;9.386;2023-12-20T10:38:05;5.00;;;1.60;;
44850;SDS011;30583;48.714;9.386;2023-12-20T10:40:34;7.85;;;1.80;;
44850;SDS011;30583;48.714;9.386;2023-12-20T10:43:03;5.43;;;1.40;;
44850;SDS011;30583;48.714;9.386;2023-12-20T10:45:30;6.68;;;1.40;;
44850;SDS011;30583;48.714;9.386;2023-12-20T10:47:56;5.20;;;1.58;;
44850;SDS011;30583;48.714;9.386;2023-12-20T10:50:26;7.95;;;1.60;;
44850;SDS011;30583;48.714;9.386;2023-12-20T10:52:54;12.65;;;6.63;;
44850;SDS011;30583;48.714;9.386;2023-12-20T10:55:23;7.57;;;2.25;;
44850;SDS011;30583;48.714;9.386;2023-12-20T10:58:11;7.70;;;1.85;;
44850;SDS011;30583;48.714;9.386;2023-12-20T11:00:40;5.22;;;1.70;;
44850;SDS011;30583;48.714;9.386;2023-12-20T11:03:09;6.20;;;2.15;;
44850;SDS011;30583;48.714;9.386;2023-12-20T11:08:39;5.80;;;1.73;;
44850;SDS011;30583;48.714;9.386;2023-12-20T11:15:04;5.07;;;1.52;;
44850;SDS011;30583;48.714;9.386;2023-12-20T11:17:11;3.88;;;1.63;;
44850;SDS011;30583;48.714;9.386;2023-12-20T11:22:32;4.53;;;1.55;;
44850;SDS011;30583;48.714;9.386;2023-12-20T11:25:06;6.32;;;1.58;;
44850;SDS011;30583;48.714;9.386;2023-12-20T11:27:36;5.75;;;1.40;;
44850;SDS011;30583;48.714;9.386;2023-12-20T11:30:06;3.80;;;1.50;;
44850;SDS011;30583;48.714;9.386;2023-12-20T11:32:34;5.18;;;1.52;;
44850;SDS011;30583;48.714;9.386;2023-12-20T11:37:37;7.50;;;2.08;;
44850;SDS011;30583;48.714;9.386;2023-12-20T11:40:08;5.88;;;2.20;;
44850;SDS011;30583;48.714;9.386;2023-12-20T11:42:40;6.63;;;1.90;;
44850;SDS011;30583;48.714;9.386;2023-12-20T11:45:10;4.85;;;1.48;;
44850;SDS011;30583;48.714;9.386;2023-12-20T11:47:36;8.50;;;1.80;;
44850;SDS011;30583;48.714;9.386;2023-12-20T11:50:03;8.68;;;2.42;;
44850;SDS011;30583;48.714;9.386;2023-12-20T11:52:29;5.40;;;2.20;;
44850;SDS011;30583;48.714;9.386;2023-12-20T11:54:56;6.85;;;1.92;;
44850;SDS011;30583;48.714;9.386;2023-12-20T11:57:22;5.10;;;2.00;;
44850;SDS011;30583;48.714;9.386;2023-12-20T11:59:48;7.25;;;2.53;;
44850;SDS011;30583;48.714;9.386;2023-12-20T12:02:15;4.53;;;1.48;;
44850;SDS011;30583;48.714;9.386;2023-12-20T12:04:41;3.97;;;1.20;;
44850;SDS011;30583;48.714;9.386;2023-12-20T12:07:07;4.78;;;1.63;;
44850;SDS011;30583;48.714;9.386;2023-12-20T12:09:33;6.70;;;1.75;;
44850;SDS011;30583;48.714;9.386;2023-12-20T12:12:00;7.38;;;2.88;;
44850;SDS011;30583;48.714;9.386;2023-12-20T12:14:26;18.35;;;7.40;;
44850;SDS011;30583;48.714;9.386;2023-12-20T12:16:52;17.00;;;8.30;;
44850;SDS011;30583;48.714;9.386;2023-12-20T12:21:48;7.95;;;2.55;;
44850;SDS011;30583;48.714;9.386;2023-12-20T12:24:15;6.78;;;1.83;;
44850;SDS011;30583;48.714;9.386;2023-12-20T12:26:50;7.05;;;1.60;;
44850;SDS011;30583;48.714;9.386;2023-12-20T12:29:16;16.50;;;9.43;;
44850;SDS011;30583;48.714;9.386;2023-12-20T12:31:42;6.43;;;1.70;;
44850;SDS011;30583;48.714;9.386;2023-12-20T12:34:08;8.32;;;1.80;;
44850;SDS011;30583;48.714;9.386;2023-12-20T12:36:34;6.22;;;1.52;;
44850;SDS011;30583;48.714;9.386;2023-12-20T12:39:03;8.40;;;1.38;;
44850;SDS011;30583;48.714;9.386;2023-12-20T12:41:30;5.68;;;1.55;;
44850;SDS011;30583;48.714;9.386;2023-12-20T12:43:55;5.63;;;1.73;;
44850;SDS011;30583;48.714;9.386;2023-12-20T12:46:21;6.07;;;1.60;;
44850;SDS011;30583;48.714;9.386;2023-12-20T12:48:47;8.10;;;2.20;;
44850;SDS011;30583;48.714;9.386;2023-12-20T12:51:14;6.70;;;2.10;;
44850;SDS011;30583;48.714;9.386;2023-12-20T12:53:40;11.13;;;2.60;;
44850;SDS011;30583;48.714;9.386;2023-12-20T12:56:06;11.48;;;2.20;;
44850;SDS011;30583;48.714;9.386;2023-12-20T12:58:32;6.85;;;1.30;;
44850;SDS011;30583;48.714;9.386;2023-12-20T13:00:58;7.03;;;1.70;;
44850;SDS011;30583;48.714;9.386;2023-12-20T13:03:24;5.32;;;1.70;;
44850;SDS011;30583;48.714;9.386;2023-12-20T13:05:50;7.30;;;2.15;;
44850;SDS011;30583;48.714;9.386;2023-12-20T13:08:15;5.10;;;1.40;;
44850;SDS011;30583;48.714;9.386;2023-12-20T13:10:41;5.40;;;1.33;;
44850;SDS011;30583;48.714;9.386;2023-12-20T13:13:07;5.72;;;1.50;;
44850;SDS011;30583;48.714;9.386;2023-12-20T13:15:32;7.72;;;1.45;;
44850;SDS011;30583;48.714;9.386;2023-12-20T13:17:58;6.30;;;1.23;;
44850;SDS011;30583;48.714;9.386;2023-12-20T13:20:25;5.18;;;1.50;;
44850;SDS011;30583;48.714;9.386;2023-12-20T13:22:50;5.75;;;1.50;;
44850;SDS011;30583;48.714;9.386;2023-12-20T13:25:16;4.90;;;1.60;;
44850;SDS011;30583;48.714;9.386;2023-12-20T13:27:42;6.40;;;2.00;;
44850;SDS011;30583;48.714;9.386;2023-12-20T13:30:08;8.55;;;2.20;;
44850;SDS011;30583;48.714;9.386;2023-12-20T13:32:34;5.60;;;2.58;;
44850;SDS011;30583;48.714;9.386;2023-12-20T13:35:00;6.53;;;1.52;;
44850;SDS011;30583;48.714;9.386;2023-12-20T13:37:26;5.65;;;2.17;;
44850;SDS011;30583;48.714;9.386;2023-12-20T13:39:52;5.47;;;2.78;;
44850;SDS011;30583;48.714;9.386;2023-12-20T13:42:18;5.55;;;2.67;;
44850;SDS011;30583;48.714;9.386;2023-12-20T13:44:45;7.30;;;2.10;;
44850;SDS011;30583;48.714;9.386;2023-12-20T13:47:11;9.20;;;2.47;;
44850;SDS011;30583;48.714;9.386;2023-12-20T13:49:37;11.25;;;4.78;;
44850;SDS011;30583;48.714;9.386;2023-12-20T13:52:03;7.95;;;3.90;;
44850;SDS011;30583;48.714;9.386;2023-12-20T13:54:29;3.83;;;1.63;;
44850;SDS011;30583;48.714;9.386;2023-12-20T13:56:55;7.63;;;2.90;;
44850;SDS011;30583;48.714;9.386;2023-12-20T13:59:22;7.05;;;3.08;;
44850;SDS011;30583;48.714;9.386;2023-12-20T14:01:48;10.38;;;2.45;;
44850;SDS011;30583;48.714;9.386;2023-12-20T14:04:15;8.55;;;2.20;;
44850;SDS011;30583;48.714;9.386;2023-12-20T14:06:40;9.00;;;2.95;;
44850;SDS011;30583;48.714;9.386;2023-12-20T14:09:07;6.60;;;2.15;;
44850;SDS011;30583;48.714;9.386;2023-12-20T14:11:33;8.95;;;1.88;;
44850;SDS011;30583;48.714;9.386;2023-12-20T14:13:58;9.85;;;2.78;;
44850;SDS011;30583;48.714;9.386;2023-12-20T14:16:24;5.97;;;2.17;;
44850;SDS011;30583;48.714;9.386;2023-12-20T14:18:50;9.80;;;2.10;;
44850;SDS011;30583;48.714;9.386;2023-12-20T14:21:17;5.40;;;1.80;;
44850;SDS011;30583;48.714;9.386;2023-12-20T14:23:43;7.85;;;1.45;;
44850;SDS011;30583;48.714;9.386;2023-12-20T14:26:08;5.50;;;1.35;;
44850;SDS011;30583;48.714;9.386;2023-12-20T14:28:40;7.80;;;1.77;;
44850;SDS011;30583;48.714;9.386;2023-12-20T14:31:06;8.57;;;1.77;;
44850;SDS011;30583;48.714;9.386;2023-12-20T14:33:32;4.60;;;1.50;;
44850;SDS011;30583;48.714;9.386;2023-12-20T14:35:57;6.30;;;1.30;;
44850;SDS011;30583;48.714;9.386;2023-12-20T14:38:23;8.25;;;2.53;;
44850;SDS011;30583;48.714;9.386;2023-12-20T14:40:49;4.03;;;1.30;;
44850;SDS011;30583;48.714;9.386;2023-12-20T14:43:15;5.35;;;1.35;;
44850;SDS011;30583;48.714;9.386;2023-12-20T14:45:41;5.85;;;1.48;;
44850;SDS011;30583;48.714;9.386;2023-12-20T14:48:07;4.10;;;1.30;;
44850;SDS011;30583;48.714;9.386;2023-12-20T14:50:33;6.68;;;0.95;;